• Join FlightAware (Why Join?)
  • Login
  • US Flag 
01:39AM EDT


 

Airport Tracker/Info


-or-


 

Live Flight TrackerFlight Track Log ✈ N71AA ✈ 13-Aug-2013 ✈ PAKT / KTN - PAJN / JNU

Flight Track Log - Related Links

Times and Time Zones

All times are in EDT time to prevent confusion due to time zone crossing. See the N71AA flight status page for this flight to view local times or setup timezone preferences in your user account.

Time Position Orientation Groundspeed Altitude Reporting Facility
EDT Latitude Longitude Course Direction KTS MPH feet Rate Location/Type
05:04PM 55.4000 -131.8167 328° Northwest 190 219 4,900  Level Anchorage Center
05:05PM 55.4500 -131.8667 330° Northwest 170 196 7,200 2,100 Climbing Anchorage Center
05:06PM 55.4833 -131.9333 311° West 180 207 9,200 2,040 Climbing Anchorage Center
05:07PM 55.5167 -132.0000 311° West 190 219 11,300 1,800 Climbing Anchorage Center
05:08PM 55.5500 -132.0500 320° Northwest 180 207 12,900 1,620 Climbing Anchorage Center
05:09PM 55.6666 -132.2186 328° Northwest  Level FlightAware Approximate
05:09PM 55.5833 -132.1167 312° West 180 207 14,600  Level Anchorage Center
05:10PM 55.6167 -132.1833 312° West 190 219 16,000 1,260 Climbing Anchorage Center
05:11PM 55.6667 -132.2333 331° Northwest 190 219 17,200 960 Climbing Anchorage Center
05:12PM 55.7167 -132.2667 339° North 190 219 18,000 360 Climbing Anchorage Center
05:13PM 55.7667 -132.3333 323° Northwest 220 253 18,000  Level Anchorage Center
05:14PM 55.8333 -132.4167 325° Northwest 280 322 18,000  Level Anchorage Center
05:15PM 55.9000 -132.5000 325° Northwest 270 311 18,000  Level Anchorage Center
05:16PM 55.9667 -132.5667 331° Northwest 280 322 18,000  Level Anchorage Center
05:17PM 56.0500 -132.6500 331° Northwest 290 334 18,000  Level Anchorage Center
05:18PM 56.1167 -132.7333 325° Northwest 300 345 18,000  Level Anchorage Center
05:20PM 56.2500 -132.8833 328° Northwest 300 345 18,000  Level Anchorage Center
05:21PM 56.3167 -132.9500 331° Northwest 300 345 18,000  Level Anchorage Center
05:22PM 56.3833 -133.0333 325° Northwest 290 334 18,000  Level Anchorage Center
05:23PM 56.4500 -133.1167 325° Northwest 300 345 18,000  Level Anchorage Center
05:25PM 56.6000 -133.2833 329° Northwest 290 334 18,000  Level Anchorage Center
05:26PM 56.6500 -133.3500 324° Northwest 300 345 18,000  Level Anchorage Center
05:27PM 56.7167 -133.4333 326° Northwest 290 334 18,000  Level Anchorage Center
05:28PM 56.7833 -133.5167 326° Northwest 300 345 18,000  Level Anchorage Center
05:29PM 56.8500 -133.6000 326° Northwest 290 334 18,000  Level Anchorage Center
05:30PM 56.9333 -133.6833 331° Northwest 300 345 18,000  Level Anchorage Center
05:31PM 57.0000 -133.7667 326° Northwest 290 334 18,000  Level Anchorage Center
05:32PM 57.0667 -133.8500 326° Northwest 290 334 18,000  Level Anchorage Center
05:33PM 57.1333 -133.9333 326° Northwest 300 345 18,000  Level Anchorage Center
05:34PM 57.2000 -134.0167 326° Northwest 290 334 18,000  Level Anchorage Center
05:35PM 57.2667 -134.1000 326° Northwest 300 345 18,000  Level Anchorage Center
05:36PM 57.3333 -134.1833 326° Northwest 290 334 18,000  Level Anchorage Center
05:37PM 57.4000 -134.2667 326° Northwest 290 334 18,000  Level Anchorage Center
05:38PM 57.4833 -134.3667 327° Northwest 280 322 18,000  Level Anchorage Center
05:39PM 57.5333 -134.4333 324° Northwest 290 334 18,000  Level Anchorage Center
05:40PM 57.6000 -134.5167 326° Northwest 290 334 18,000 -180 Level Anchorage Center
05:41PM 57.6833 -134.6167 327° Northwest 290 334 17,700 -720 Descending Anchorage Center
05:42PM 57.7500 -134.7000 326° Northwest 310 357 16,600 -1,380 Descending Anchorage Center
05:43PM 57.8167 -134.8000 321° Northwest 300 345 15,000 -1,680 Descending Anchorage Center
05:44PM 57.8833 -134.8833 326° Northwest 300 345 13,300 -1,740 Descending Anchorage Center
05:45PM 57.9500 -134.9667 326° Northwest 290 334 11,500 -1,740 Descending Anchorage Center
05:46PM 58.0000 -135.0333 325° Northwest 280 322 9,900 -1,680 Descending Anchorage Center